createdAt,value
2023-05-19T00:01:13.678Z,10.65
2023-05-19T00:03:52.473Z,11.35
2023-05-19T00:06:24.992Z,10.57
2023-05-19T00:08:57.678Z,10.43
2023-05-19T00:11:26.465Z,11.02
2023-05-19T00:13:58.573Z,11.35
2023-05-19T00:16:27.429Z,10.20
2023-05-19T00:18:54.324Z,10.15
2023-05-19T00:21:21.019Z,9.50
2023-05-19T00:23:47.636Z,9.52
2023-05-19T00:26:14.254Z,9.38
2023-05-19T00:28:50.996Z,9.65
2023-05-19T00:31:17.688Z,9.30
2023-05-19T00:33:44.744Z,8.60
2023-05-19T00:36:11.683Z,9.00
2023-05-19T00:38:38.373Z,9.65
2023-05-19T00:41:06.342Z,9.02
2023-05-19T00:43:34.396Z,8.75
2023-05-19T00:46:01.238Z,8.52
2023-05-19T00:48:28.022Z,8.52
2023-05-19T00:51:01.913Z,9.27
2023-05-19T00:53:29.223Z,8.40
2023-05-19T00:55:56.100Z,9.00
2023-05-19T00:58:23.827Z,8.75
2023-05-19T01:00:50.627Z,8.35
2023-05-19T01:03:20.530Z,8.35
2023-05-19T01:05:53.633Z,8.85
2023-05-19T01:08:20.352Z,8.80
2023-05-19T01:10:46.950Z,8.88
2023-05-19T01:13:13.849Z,8.55
2023-05-19T01:15:57.892Z,8.50
2023-05-19T01:18:47.435Z,8.18
2023-05-19T01:21:44.527Z,8.77
2023-05-19T01:24:14.533Z,9.02
2023-05-19T01:27:07.435Z,9.05
2023-05-19T01:29:48.414Z,9.15
2023-05-19T01:32:18.537Z,9.10
2023-05-19T01:34:46.932Z,9.38
2023-05-19T01:37:16.164Z,9.48
2023-05-19T01:39:44.709Z,9.18
2023-05-19T01:42:12.790Z,10.23
2023-05-19T01:44:39.609Z,9.75
2023-05-19T01:47:06.460Z,10.00
2023-05-19T01:49:33.036Z,10.25
2023-05-19T01:51:59.566Z,9.80
2023-05-19T01:54:26.155Z,10.40
2023-05-19T01:57:04.008Z,10.43
2023-05-19T01:59:44.837Z,10.23
2023-05-19T02:02:34.316Z,10.18
2023-05-19T02:05:13.454Z,10.05
2023-05-19T02:07:44.815Z,10.13
2023-05-19T02:10:19.195Z,10.73
2023-05-19T02:12:46.072Z,9.75
2023-05-19T02:15:18.915Z,10.23
2023-05-19T02:17:48.320Z,10.05
2023-05-19T02:20:16.179Z,10.13
2023-05-19T02:22:42.899Z,9.88
2023-05-19T02:25:10.098Z,10.18
2023-05-19T02:27:38.300Z,10.52
2023-05-19T02:30:06.149Z,9.75
2023-05-19T02:32:33.354Z,10.00
2023-05-19T02:35:00.059Z,9.45
2023-05-19T02:37:35.290Z,10.60
2023-05-19T02:40:01.809Z,9.57
2023-05-19T02:42:29.586Z,9.80
2023-05-19T02:44:56.220Z,10.20
2023-05-19T02:47:22.936Z,10.48
2023-05-19T02:49:49.558Z,10.43
2023-05-19T02:52:16.161Z,10.27
2023-05-19T02:54:43.649Z,10.27
2023-05-19T02:57:11.148Z,10.73
2023-05-19T02:59:37.759Z,10.55
2023-05-19T03:02:04.664Z,11.07
2023-05-19T03:04:31.273Z,11.07
2023-05-19T03:06:57.880Z,11.27
2023-05-19T03:09:24.641Z,11.10
2023-05-19T03:11:51.407Z,10.73
2023-05-19T03:14:18.532Z,10.52
2023-05-19T03:16:45.321Z,11.02
2023-05-19T03:19:12.392Z,11.00
2023-05-19T03:21:39.215Z,11.35
2023-05-19T03:24:06.662Z,10.68
2023-05-19T03:26:33.687Z,11.82
2023-05-19T03:29:00.957Z,11.95
2023-05-19T03:31:28.380Z,11.00
2023-05-19T03:33:55.189Z,10.95
2023-05-19T03:36:22.542Z,11.25
2023-05-19T03:38:49.518Z,11.40
2023-05-19T03:41:16.202Z,11.07
2023-05-19T03:43:42.772Z,10.70
2023-05-19T03:46:10.244Z,11.45
2023-05-19T03:48:52.614Z,11.07
2023-05-19T03:51:25.098Z,11.68
2023-05-19T03:53:55.915Z,11.85
2023-05-19T03:56:23.593Z,11.73
2023-05-19T03:58:50.223Z,12.25
2023-05-19T04:01:17.474Z,11.52
2023-05-19T04:03:44.094Z,12.52
2023-05-19T04:06:10.979Z,12.10
2023-05-19T04:08:37.538Z,11.40
2023-05-19T04:11:04.266Z,11.13
2023-05-19T04:13:33.808Z,11.25
2023-05-19T04:16:01.080Z,11.27
2023-05-19T04:18:29.014Z,11.27
2023-05-19T04:20:55.968Z,11.65
2023-05-19T04:23:22.602Z,11.45
2023-05-19T04:25:49.771Z,11.73
2023-05-19T04:28:16.485Z,11.57
2023-05-19T04:30:43.175Z,12.27
2023-05-19T04:33:09.965Z,12.27
2023-05-19T04:35:38.072Z,10.98
2023-05-19T04:38:04.680Z,12.05
2023-05-19T04:40:33.660Z,11.68
2023-05-19T04:43:02.377Z,11.77
2023-05-19T04:45:30.133Z,11.50
2023-05-19T04:48:00.126Z,11.27
2023-05-19T04:50:28.572Z,11.45
2023-05-19T04:52:58.976Z,12.00
2023-05-19T04:55:26.021Z,11.10
2023-05-19T04:57:53.376Z,12.10
2023-05-19T05:00:21.220Z,12.05
2023-05-19T05:03:08.248Z,11.40
2023-05-19T05:05:35.269Z,11.80
2023-05-19T05:08:01.870Z,11.73
2023-05-19T05:10:32.602Z,11.98
2023-05-19T05:13:00.733Z,11.48
2023-05-19T05:15:28.868Z,12.25
2023-05-19T05:17:57.994Z,12.20
2023-05-19T05:20:25.396Z,11.25
2023-05-19T05:22:52.387Z,12.25
2023-05-19T05:25:20.498Z,11.85
2023-05-19T05:27:48.084Z,11.95
2023-05-19T05:30:14.691Z,12.38
2023-05-19T05:32:42.326Z,12.23
2023-05-19T05:35:18.094Z,11.15
2023-05-19T05:37:44.754Z,11.98
2023-05-19T05:40:11.907Z,11.25
2023-05-19T05:42:39.037Z,10.95
2023-05-19T05:45:06.361Z,11.70
2023-05-19T05:47:33.577Z,12.05
2023-05-19T05:50:00.534Z,11.45
2023-05-19T05:52:30.590Z,11.18
2023-05-19T05:54:59.158Z,11.48
2023-05-19T05:57:26.992Z,11.95
2023-05-19T05:59:53.712Z,11.68
2023-05-19T06:02:20.786Z,11.70
2023-05-19T06:04:47.579Z,12.07
2023-05-19T06:07:14.186Z,12.52
2023-05-19T06:09:40.844Z,11.55
2023-05-19T06:12:09.061Z,11.90
2023-05-19T06:14:41.013Z,12.95
2023-05-19T06:17:36.601Z,11.38
2023-05-19T06:20:08.607Z,11.95
2023-05-19T06:22:35.264Z,11.63
2023-05-19T06:25:03.735Z,12.20
2023-05-19T06:27:31.744Z,11.60
2023-05-19T06:30:00.500Z,11.35
2023-05-19T06:32:30.324Z,12.20
2023-05-19T06:35:00.241Z,13.00
2023-05-19T06:37:26.831Z,11.43
2023-05-19T06:39:55.383Z,11.40
2023-05-19T06:42:22.789Z,11.65
2023-05-19T06:44:57.035Z,10.98
2023-05-19T06:47:24.055Z,11.55
2023-05-19T06:49:55.504Z,11.68
2023-05-19T06:52:25.586Z,11.75
2023-05-19T06:54:52.977Z,13.13
2023-05-19T06:57:19.545Z,11.38
2023-05-19T06:59:46.697Z,11.25
2023-05-19T07:02:14.160Z,11.13
2023-05-19T07:04:41.052Z,11.52
2023-05-19T07:07:08.028Z,10.85
2023-05-19T07:09:35.515Z,11.32
2023-05-19T07:12:03.146Z,11.82
2023-05-19T07:14:30.309Z,11.02
2023-05-19T07:16:56.894Z,10.18
2023-05-19T07:19:24.346Z,10.93
2023-05-19T07:21:53.418Z,10.70
2023-05-19T07:24:21.433Z,10.00
2023-05-19T07:26:48.161Z,10.80
2023-05-19T07:29:14.729Z,10.02
2023-05-19T07:31:41.387Z,10.10
2023-05-19T07:34:08.734Z,10.30
2023-05-19T07:36:35.941Z,10.88
2023-05-19T07:39:02.591Z,10.50
2023-05-19T07:41:29.151Z,9.80
2023-05-19T07:43:55.892Z,9.60
2023-05-19T07:46:22.523Z,9.02
2023-05-19T07:48:49.135Z,9.60
2023-05-19T07:51:16.160Z,9.57
2023-05-19T07:53:42.704Z,9.50
2023-05-19T07:56:09.281Z,9.43
2023-05-19T07:58:35.880Z,9.00
2023-05-19T08:01:02.429Z,9.32
2023-05-19T08:03:30.592Z,8.20
2023-05-19T08:05:57.398Z,7.95
2023-05-19T08:08:24.148Z,7.85
2023-05-19T08:10:50.733Z,7.78
2023-05-19T08:13:17.286Z,8.32
2023-05-19T08:15:44.056Z,8.20
2023-05-19T08:18:10.848Z,8.48
2023-05-19T08:20:37.547Z,9.20
2023-05-19T08:23:04.167Z,8.45
2023-05-19T08:25:30.716Z,8.65
2023-05-19T08:27:57.265Z,8.20
2023-05-19T08:30:24.231Z,7.93
2023-05-19T08:32:51.165Z,7.45
2023-05-19T08:35:17.810Z,7.57
2023-05-19T08:37:44.397Z,7.88
2023-05-19T08:40:17.484Z,7.57
2023-05-19T08:42:45.960Z,7.07
2023-05-19T08:45:13.171Z,7.25
2023-05-19T08:47:46.299Z,6.88
2023-05-19T08:50:17.612Z,6.97
2023-05-19T08:52:53.729Z,8.65
2023-05-19T08:55:34.529Z,7.28
2023-05-19T08:58:03.447Z,6.50
2023-05-19T09:00:30.674Z,6.65
2023-05-19T09:03:06.009Z,6.50
2023-05-19T09:05:38.762Z,6.15
2023-05-19T09:08:05.906Z,6.40
2023-05-19T09:10:32.451Z,8.45
2023-05-19T09:12:59.030Z,6.47
2023-05-19T09:15:28.022Z,5.80
2023-05-19T09:18:09.298Z,7.07
2023-05-19T09:20:43.671Z,6.30
2023-05-19T09:23:15.021Z,6.03
2023-05-19T09:25:53.913Z,6.13
2023-05-19T09:28:36.246Z,5.05
2023-05-19T09:31:08.226Z,5.30
2023-05-19T09:33:40.348Z,5.28
2023-05-19T09:36:08.715Z,5.22
2023-05-19T09:38:36.461Z,5.07
2023-05-19T09:41:05.807Z,5.00
2023-05-19T09:43:33.882Z,5.15
2023-05-19T09:46:03.962Z,5.18
2023-05-19T09:48:30.765Z,5.20
2023-05-19T09:50:58.143Z,5.35
2023-05-19T09:53:25.416Z,5.03
2023-05-19T09:55:57.546Z,4.68
2023-05-19T09:58:24.785Z,5.30
2023-05-19T10:00:52.538Z,5.25
2023-05-19T10:03:19.713Z,5.50
2023-05-19T10:05:47.510Z,5.35
2023-05-19T10:08:17.692Z,5.00
2023-05-19T10:10:48.420Z,5.00
2023-05-19T10:13:16.407Z,5.03
2023-05-19T10:15:57.497Z,4.78
2023-05-19T10:18:26.603Z,4.82
2023-05-19T10:20:54.302Z,4.95
2023-05-19T10:23:21.057Z,4.57
2023-05-19T10:25:49.217Z,4.63
2023-05-19T10:28:21.270Z,4.72
2023-05-19T10:30:50.813Z,5.30
2023-05-19T10:33:19.991Z,5.30
2023-05-19T10:36:11.826Z,4.75
2023-05-19T10:39:05.032Z,5.10
2023-05-19T10:42:02.051Z,4.75
2023-05-19T10:44:45.026Z,5.03
2023-05-19T10:47:12.347Z,4.90
2023-05-19T10:49:39.694Z,6.20
2023-05-19T10:52:23.377Z,5.20
2023-05-19T10:54:51.360Z,5.05
2023-05-19T10:57:19.805Z,5.20
2023-05-19T10:59:47.045Z,5.72
2023-05-19T11:02:41.066Z,6.45
2023-05-19T11:05:09.557Z,5.30
2023-05-19T11:07:36.433Z,5.30
2023-05-19T11:10:07.568Z,5.32
2023-05-19T11:12:44.691Z,4.90
2023-05-19T11:15:15.571Z,5.50
2023-05-19T11:17:46.113Z,5.05
2023-05-19T11:20:22.678Z,4.93
2023-05-19T11:23:06.236Z,4.88
2023-05-19T11:25:50.812Z,4.70
2023-05-19T11:28:20.012Z,5.18
2023-05-19T11:30:51.862Z,4.85
2023-05-19T11:33:20.372Z,4.93
2023-05-19T11:35:49.373Z,5.40
2023-05-19T11:38:18.445Z,4.80
2023-05-19T11:40:45.236Z,5.10
2023-05-19T11:43:11.815Z,4.50
2023-05-19T11:45:38.672Z,5.43
2023-05-19T11:48:06.274Z,4.53
2023-05-19T11:50:33.285Z,4.60
2023-05-19T11:53:01.290Z,4.78
2023-05-19T11:55:28.581Z,4.75
2023-05-19T11:58:02.809Z,4.57
2023-05-19T12:00:37.553Z,4.72
2023-05-19T12:03:04.744Z,4.40
2023-05-19T12:05:34.501Z,4.82
2023-05-19T12:08:03.121Z,7.18
2023-05-19T12:10:31.729Z,4.40
2023-05-19T12:12:59.746Z,4.63
2023-05-19T12:15:26.522Z,4.57
2023-05-19T12:18:01.027Z,4.70
2023-05-19T12:20:31.865Z,5.10
2023-05-19T12:23:00.140Z,5.18
2023-05-19T12:25:27.381Z,4.72
2023-05-19T12:27:58.404Z,5.00
2023-05-19T12:30:28.716Z,4.90
2023-05-19T12:32:58.661Z,4.90
2023-05-19T12:35:36.475Z,5.00
2023-05-19T12:38:04.747Z,5.00
2023-05-19T12:40:31.914Z,5.03
2023-05-19T12:43:01.546Z,7.88
2023-05-19T12:45:28.826Z,5.45
2023-05-19T12:47:56.109Z,4.78
2023-05-19T12:50:30.185Z,5.25
2023-05-19T12:52:58.386Z,6.18
2023-05-19T12:55:24.934Z,5.10
2023-05-19T12:57:57.833Z,5.30
2023-05-19T13:00:27.751Z,5.10
2023-05-19T13:03:01.768Z,5.35
2023-05-19T13:05:30.241Z,5.18
2023-05-19T13:07:58.479Z,5.65
2023-05-19T13:10:27.653Z,5.93
2023-05-19T13:12:58.930Z,4.97
2023-05-19T13:15:28.017Z,5.18
2023-05-19T13:17:55.056Z,5.18
2023-05-19T13:20:22.083Z,5.20
2023-05-19T13:22:49.156Z,5.25
2023-05-19T13:25:16.396Z,5.78
2023-05-19T13:27:45.799Z,6.07
2023-05-19T13:30:12.830Z,5.20
2023-05-19T13:32:39.516Z,5.03
2023-05-19T13:35:06.771Z,5.20
2023-05-19T13:37:33.572Z,4.90
2023-05-19T13:40:00.362Z,4.88
2023-05-19T13:42:26.957Z,6.40
2023-05-19T13:44:56.983Z,5.07
2023-05-19T13:47:24.201Z,5.22
2023-05-19T13:49:51.710Z,5.43
2023-05-19T13:52:19.608Z,5.22
2023-05-19T13:54:46.562Z,5.22
2023-05-19T13:57:13.276Z,5.10
2023-05-19T13:59:52.957Z,4.78
2023-05-19T14:02:26.717Z,6.80
2023-05-19T14:04:53.514Z,5.18
2023-05-19T14:07:20.096Z,5.25
2023-05-19T14:09:46.872Z,5.13
2023-05-19T14:12:13.699Z,5.00
2023-05-19T14:14:40.485Z,7.03
2023-05-19T14:17:07.106Z,5.07
2023-05-19T14:19:33.694Z,5.38
2023-05-19T14:22:00.336Z,5.10
2023-05-19T14:24:26.932Z,6.07
2023-05-19T14:26:53.779Z,5.10
2023-05-19T14:29:20.376Z,5.30
2023-05-19T14:31:47.232Z,5.32
2023-05-19T14:34:17.705Z,5.07
2023-05-19T14:36:44.648Z,5.10
2023-05-19T14:39:11.867Z,5.00
2023-05-19T14:41:38.553Z,5.40
2023-05-19T14:44:05.788Z,5.22
2023-05-19T14:46:32.361Z,5.05
2023-05-19T14:48:58.961Z,5.30
2023-05-19T14:51:25.641Z,5.25
2023-05-19T14:53:52.244Z,5.18
2023-05-19T14:56:18.790Z,4.82
2023-05-19T14:58:45.358Z,5.43
2023-05-19T15:01:11.971Z,5.40
2023-05-19T15:03:38.601Z,5.07
2023-05-19T15:06:11.714Z,5.10
2023-05-19T15:08:39.222Z,5.13
2023-05-19T15:11:05.847Z,4.75
2023-05-19T15:13:32.427Z,5.40
2023-05-19T15:16:08.226Z,5.32
2023-05-19T15:18:42.042Z,5.10
2023-05-19T15:21:08.591Z,5.00
2023-05-19T15:23:35.125Z,4.90
2023-05-19T15:26:01.734Z,5.07
2023-05-19T15:28:28.298Z,5.15
2023-05-19T15:30:55.893Z,5.47
2023-05-19T15:33:22.558Z,5.07
2023-05-19T15:35:51.630Z,5.53
2023-05-19T15:38:19.370Z,5.50
2023-05-19T15:40:46.654Z,5.22
2023-05-19T15:43:13.452Z,5.18
2023-05-19T15:45:40.066Z,5.40
2023-05-19T15:48:07.019Z,5.30
2023-05-19T15:50:33.855Z,5.63
2023-05-19T15:53:00.624Z,5.43
2023-05-19T15:55:27.159Z,5.18
2023-05-19T15:57:53.702Z,4.78
2023-05-19T16:00:20.429Z,5.10
2023-05-19T16:02:47.059Z,8.98
2023-05-19T16:05:14.275Z,5.45
2023-05-19T16:07:42.028Z,5.20
2023-05-19T16:10:09.173Z,5.05
2023-05-19T16:12:36.609Z,5.15
2023-05-19T16:15:03.783Z,5.28
2023-05-19T16:17:30.655Z,5.38
2023-05-19T16:19:57.285Z,5.45
2023-05-19T16:22:24.867Z,5.55
2023-05-19T16:24:52.286Z,5.10
2023-05-19T16:27:19.188Z,5.10
2023-05-19T16:29:45.919Z,4.90
2023-05-19T16:32:12.927Z,5.97
2023-05-19T16:34:39.788Z,4.88
2023-05-19T16:37:06.403Z,4.90
2023-05-19T16:39:35.919Z,4.97
2023-05-19T16:42:03.098Z,4.75
2023-05-19T16:44:29.825Z,5.05
2023-05-19T16:46:56.352Z,4.50
2023-05-19T16:49:22.894Z,5.68
2023-05-19T16:51:49.696Z,5.00
2023-05-19T16:54:16.312Z,4.75
2023-05-19T16:56:42.997Z,4.97
2023-05-19T16:59:09.756Z,5.00
2023-05-19T17:01:36.364Z,4.90
2023-05-19T17:04:02.965Z,4.45
2023-05-19T17:06:29.638Z,5.32
2023-05-19T17:08:56.200Z,5.95
2023-05-19T17:11:22.889Z,4.80
2023-05-19T17:13:49.424Z,5.47
2023-05-19T17:16:16.072Z,5.35
2023-05-19T17:18:43.600Z,5.65
2023-05-19T17:21:10.588Z,5.25
2023-05-19T17:23:37.822Z,5.18
2023-05-19T17:26:04.580Z,4.80
2023-05-19T17:28:31.165Z,5.18
2023-05-19T17:30:57.832Z,5.05
2023-05-19T17:33:24.624Z,4.80
2023-05-19T17:35:51.389Z,4.70
2023-05-19T17:38:17.972Z,5.43
2023-05-19T17:40:44.594Z,5.57
2023-05-19T17:43:11.296Z,5.18
2023-05-19T17:45:37.888Z,5.13
2023-05-19T17:48:04.941Z,4.88
2023-05-19T17:50:31.869Z,5.40
2023-05-19T17:52:58.886Z,4.95
2023-05-19T17:55:29.695Z,5.10
2023-05-19T17:57:56.879Z,4.85
2023-05-19T18:00:25.043Z,4.90
2023-05-19T18:02:52.433Z,5.22
2023-05-19T18:05:19.556Z,5.32
2023-05-19T18:07:46.376Z,4.97
2023-05-19T18:10:15.524Z,4.82
2023-05-19T18:12:42.195Z,5.20
2023-05-19T18:15:09.061Z,5.45
2023-05-19T18:17:35.708Z,5.47
2023-05-19T18:20:02.475Z,5.60
2023-05-19T18:22:29.082Z,5.53
2023-05-19T18:24:57.566Z,5.53
2023-05-19T18:27:24.101Z,6.15
2023-05-19T18:29:50.672Z,6.00
2023-05-19T18:32:17.742Z,5.57
2023-05-19T18:34:44.443Z,5.50
2023-05-19T18:37:11.028Z,5.57
2023-05-19T18:39:37.554Z,6.13
2023-05-19T18:42:04.307Z,5.40
2023-05-19T18:44:31.011Z,5.70
2023-05-19T18:46:57.622Z,5.90
2023-05-19T18:49:25.049Z,5.80
2023-05-19T18:51:51.849Z,6.00
2023-05-19T18:54:19.430Z,6.43
2023-05-19T18:56:46.026Z,6.50
2023-05-19T18:59:12.561Z,5.97
2023-05-19T19:01:39.305Z,6.25
2023-05-19T19:04:06.236Z,6.38
2023-05-19T19:06:32.861Z,5.82
2023-05-19T19:08:59.391Z,5.68
2023-05-19T19:11:26.383Z,5.85
2023-05-19T19:13:55.447Z,6.15
2023-05-19T19:16:22.546Z,5.72
2023-05-19T19:18:49.300Z,5.60
2023-05-19T19:21:15.982Z,5.78
2023-05-19T19:23:42.498Z,7.22
2023-05-19T19:26:09.543Z,7.88
2023-05-19T19:28:36.445Z,8.88
2023-05-19T19:31:03.168Z,10.80
2023-05-19T19:33:29.764Z,7.82
2023-05-19T19:35:56.449Z,6.22
2023-05-19T19:38:23.126Z,5.68
2023-05-19T19:40:52.453Z,5.85
2023-05-19T19:43:19.452Z,5.47
2023-05-19T19:45:46.065Z,5.75
2023-05-19T19:48:12.725Z,5.30
2023-05-19T19:50:39.361Z,5.18
2023-05-19T19:53:06.017Z,5.30
2023-05-19T19:55:32.796Z,5.10
2023-05-19T19:57:59.348Z,4.97
2023-05-19T20:00:25.923Z,5.28
2023-05-19T20:03:04.336Z,5.80
2023-05-19T20:05:31.967Z,5.95
2023-05-19T20:07:58.586Z,5.50
2023-05-19T20:10:25.178Z,5.70
2023-05-19T20:12:52.193Z,5.53
2023-05-19T20:15:18.781Z,5.82
2023-05-19T20:17:45.865Z,6.97
2023-05-19T20:20:13.013Z,5.47
2023-05-19T20:22:39.619Z,6.00
2023-05-19T20:25:06.572Z,6.18
2023-05-19T20:27:33.238Z,5.80
2023-05-19T20:29:59.909Z,6.38
2023-05-19T20:32:26.570Z,5.95
2023-05-19T20:34:53.225Z,5.88
2023-05-19T20:37:21.524Z,6.10
2023-05-19T20:39:48.099Z,6.05
2023-05-19T20:42:14.765Z,6.70
2023-05-19T20:44:42.669Z,6.28
2023-05-19T20:47:09.465Z,7.68
2023-05-19T20:49:36.067Z,6.97
2023-05-19T20:52:02.695Z,6.50
2023-05-19T20:54:29.341Z,7.15
2023-05-19T20:56:55.964Z,6.55
2023-05-19T20:59:22.558Z,6.18
2023-05-19T21:01:49.184Z,6.68
2023-05-19T21:04:16.003Z,6.13
2023-05-19T21:06:42.635Z,5.88
2023-05-19T21:09:10.472Z,6.15
2023-05-19T21:11:37.140Z,5.93
2023-05-19T21:14:04.293Z,6.22
2023-05-19T21:16:31.935Z,6.30
2023-05-19T21:18:58.692Z,5.85
2023-05-19T21:21:26.166Z,5.93
2023-05-19T21:23:52.870Z,5.93
2023-05-19T21:26:19.457Z,5.82
2023-05-19T21:28:46.186Z,5.80
2023-05-19T21:31:12.796Z,5.50
2023-05-19T21:33:39.387Z,5.85
2023-05-19T21:36:06.047Z,6.18
2023-05-19T21:38:32.604Z,6.47
2023-05-19T21:40:59.188Z,6.35
2023-05-19T21:43:25.922Z,6.15
2023-05-19T21:45:52.493Z,6.88
2023-05-19T21:48:19.158Z,6.85
2023-05-19T21:50:45.737Z,6.38
2023-05-19T21:53:12.284Z,6.18
2023-05-19T21:55:39.334Z,7.00
2023-05-19T21:58:06.145Z,6.72
2023-05-19T22:00:33.041Z,6.72
2023-05-19T22:02:59.966Z,6.30
2023-05-19T22:05:28.898Z,6.20
2023-05-19T22:07:55.798Z,6.63
2023-05-19T22:10:22.425Z,6.63
2023-05-19T22:12:49.006Z,6.72
2023-05-19T22:15:15.866Z,6.40
2023-05-19T22:17:42.610Z,7.45
2023-05-19T22:20:09.586Z,7.20
2023-05-19T22:22:36.367Z,6.68
2023-05-19T22:25:03.698Z,6.57
2023-05-19T22:27:30.692Z,6.75
2023-05-19T22:29:57.297Z,6.57
2023-05-19T22:32:24.065Z,6.88
2023-05-19T22:34:50.882Z,6.70
2023-05-19T22:37:17.494Z,6.72
2023-05-19T22:39:44.210Z,7.07
2023-05-19T22:42:11.051Z,7.20
2023-05-19T22:44:37.641Z,6.78
2023-05-19T22:47:04.279Z,6.70
2023-05-19T22:49:30.991Z,6.60
2023-05-19T22:51:57.500Z,6.55
2023-05-19T22:54:24.098Z,6.70
2023-05-19T22:56:50.755Z,6.20
2023-05-19T22:59:18.049Z,6.70
2023-05-19T23:01:46.506Z,6.28
2023-05-19T23:04:13.835Z,6.75
2023-05-19T23:06:41.224Z,6.90
2023-05-19T23:09:07.976Z,6.57
2023-05-19T23:11:35.848Z,7.15
2023-05-19T23:14:02.547Z,7.05
2023-05-19T23:16:29.224Z,6.97
2023-05-19T23:18:55.876Z,6.97
2023-05-19T23:21:22.684Z,6.85
2023-05-19T23:23:49.892Z,6.85
2023-05-19T23:26:16.791Z,7.22
2023-05-19T23:28:43.468Z,7.20
2023-05-19T23:31:10.513Z,7.57
2023-05-19T23:33:37.050Z,7.78
2023-05-19T23:36:07.764Z,7.75
2023-05-19T23:38:35.102Z,7.33
2023-05-19T23:41:02.254Z,7.57
2023-05-19T23:43:28.966Z,7.40
2023-05-19T23:45:55.551Z,8.07
2023-05-19T23:48:22.081Z,7.50
2023-05-19T23:50:48.886Z,7.90
2023-05-19T23:53:15.530Z,7.65
2023-05-19T23:55:42.202Z,8.25
2023-05-19T23:58:08.915Z,7.63
